Pagrindinis puslapis
METAR-TAF:

METAR-TAF

Oro uostai :

Gothenburg-Landvetter, Švedija

platuma: 57-40N, ilguma: 012-18E, Aukštis: 169 m

Dabartinis oras

Ataskaita buvo paskelbta 21 minutes, ne 06:20 UTC
Vėjas 7 kt iš Rytų/Pietryčių
Temperatūra -4°C
Drėgmė 93%
Slėgis 1000 hPa
Matomumas: 5000 m
Su prošvaistėmis ne aukštis 1000 ft
sniegas

METAR: ESGG 280620Z 12007KT 5000 -SN BKN010 M04/M05 Q1000 R21/19//95

Laikas: 07:41 (06:41 UTC)

Prognozė

Ataskaita buvo paskelbta 1 valandą ir 11 minutes, ne 05:30 UTC
Prognozė galioja nuo 28 metu 06 UTC su 29 metu 06 UTC
Vėjas 8 kt iš Pietryčių
Matomumas 10 km arba daugiau
Su prošvaistėmis ne aukštis 2000 ft
Laikinai
nuo 28 metu 06 UTC su 28 metu 08 UTC
Matomumas: 2000 m
Su prošvaistėmis ne aukštis 900 ft
Su prošvaistėmis ne aukštis 3000 ft, Liūtiniai kamuoliniai debesys.
sniegas
Tikimybė 40%
nuo 28 metu 21 UTC su 29 metu 06 UTC
Matomumas: 2000 m
rūkana

TAF: ESGG 280530Z 2806/2906 13008KT 9999 BKN020 TEMPO 2806/2808 2000 -SHSN BKN009 BKN030CB PROB40 2821/2906 2000 BR

Orai ataskaitas ir orų prognozės (METAR, TAF).

turimą stotys yra geltonos ir raudonos taškus žemėlapyje.

Perkelti pele per norėdami pamatyti stoties vardą.

Tada spustelėkite, norėdami matyti oro stebėjimo ir prognozės.

Norėdami pakeisti žemėlapį: spustelėkite ant žalios mygtukų su juodo kryžiaus žemyn,; žalią mygtuką su brūkšneliu, jei norite nutolinti; arba žalių rodyklių gretimoms žemėlapius.


METAR-TAF: